Time;durP1;ratioP1;P1;durP2;ratioP2;P2;SDS_P1;SDS_P2;PMS_P1;PMS_P2;Temp;Humidity;BMP_temperature;BMP_pressure;BME280_temperature;BME280_humidity;BME280_pressure;Samples;Min_cycle;Max_cycle;Signal;HPM_P1;HPM_P2
2021/11/10 00:00:12;;;;;;;8.02;3.45;;;13.60;99.90;;;;;;5055920;28;20068;-72
2021/11/10 00:03:19;;;;;;;7.15;3.70;;;13.70;99.90;;;;;;5063167;28;20032;-72
2021/11/10 00:06:23;;;;;;;7.20;3.85;;;13.70;99.90;;;;;;5062470;28;20048;-72
2021/11/10 00:09:27;;;;;;;7.43;4.07;;;13.60;99.90;;;;;;5058528;28;20052;-72
2021/11/10 00:12:31;;;;;;;5.80;3.63;;;13.60;99.90;;;;;;5060759;28;20047;-72
2021/11/10 00:15:35;;;;;;;7.03;3.63;;;13.60;99.90;;;;;;5063785;28;20040;-72
2021/11/10 00:18:39;;;;;;;4.97;3.38;;;13.60;99.90;;;;;;5058680;28;20048;-72
2021/11/10 00:21:44;;;;;;;6.13;3.67;;;13.60;99.90;;;;;;5058698;28;20044;-71
2021/11/10 00:24:48;;;;;;;7.07;3.72;;;13.50;99.90;;;;;;5061735;28;20391;-72
2021/11/10 00:27:53;;;;;;;9.75;4.68;;;13.50;99.90;;;;;;5060483;28;20048;-72
2021/11/10 00:30:57;;;;;;;7.25;4.40;;;13.50;99.90;;;;;;5060765;28;20059;-72
2021/11/10 00:34:02;;;;;;;8.00;4.40;;;13.50;99.90;;;;;;5060917;28;20486;-72
2021/11/10 00:37:06;;;;;;;8.52;4.60;;;13.50;99.90;;;;;;5060916;28;20047;-72
2021/11/10 00:40:11;;;;;;;6.63;4.40;;;13.40;99.90;;;;;;5057421;28;20044;-72
2021/11/10 00:43:15;;;;;;;7.10;4.07;;;13.40;99.90;;;;;;5058275;28;20044;-72
2021/11/10 00:46:19;;;;;;;7.72;4.25;;;13.30;99.90;;;;;;5063417;28;20043;-72
2021/11/10 00:49:23;;;;;;;7.45;4.30;;;13.30;99.90;;;;;;5062163;28;20051;-72
2021/11/10 00:52:28;;;;;;;7.95;4.15;;;13.20;99.90;;;;;;5058082;28;20036;-72
2021/11/10 00:55:34;;;;;;;6.68;4.35;;;13.10;99.90;;;;;;5057593;28;20043;-72
2021/11/10 00:58:39;;;;;;;6.97;4.55;;;13.00;99.90;;;;;;5060502;28;20059;-72
2021/11/10 01:01:44;;;;;;;8.15;4.20;;;12.90;99.90;;;;;;5066336;28;20059;-72
2021/11/10 01:04:49;;;;;;;7.60;4.50;;;12.80;99.90;;;;;;5061358;28;20510;-72
2021/11/10 01:07:55;;;;;;;10.45;4.45;;;12.60;99.90;;;;;;5060047;28;20043;-72
2021/11/10 01:11:00;;;;;;;12.38;5.93;;;12.50;99.90;;;;;;5059068;28;20047;-72
2021/11/10 01:14:05;;;;;;;8.63;5.25;;;12.40;99.90;;;;;;5060167;28;20047;-72
2021/11/10 01:17:10;;;;;;;8.50;4.65;;;12.30;99.90;;;;;;5060614;28;20044;-72
2021/11/10 01:20:15;;;;;;;10.45;5.15;;;12.30;99.90;;;;;;5061321;28;20043;-72
2021/11/10 01:23:19;;;;;;;12.10;4.57;;;12.20;99.90;;;;;;5058398;28;20044;-72
2021/11/10 01:26:23;;;;;;;11.98;5.28;;;12.10;99.90;;;;;;5062406;28;20500;-72
2021/11/10 01:29:28;;;;;;;6.70;4.15;;;12.10;99.90;;;;;;5060402;28;20044;-72
2021/11/10 01:32:36;;;;;;;9.90;5.32;;;12.10;99.90;;;;;;5064336;28;20047;-72
2021/11/10 01:35:44;;;;;;;7.05;4.63;;;12.00;99.90;;;;;;5056480;28;20040;-72
2021/11/10 01:39:12;;;;;;;7.78;4.75;;;12.00;99.90;;;;;;5059183;28;20431;-71
2021/11/10 01:42:17;;;;;;;8.57;5.78;;;11.90;99.90;;;;;;5056778;28;20044;-72
2021/11/10 01:45:26;;;;;;;10.80;4.32;;;11.80;99.90;;;;;;5058674;28;20048;-71
2021/11/10 01:48:34;;;;;;;8.43;4.60;;;11.80;99.90;;;;;;5062090;28;20052;-72
2021/11/10 01:51:43;;;;;;;9.52;5.13;;;11.70;99.90;;;;;;5066689;28;20055;-71
2021/11/10 01:54:50;;;;;;;7.63;4.82;;;11.70;99.90;;;;;;5061732;28;20395;-71
2021/11/10 01:57:59;;;;;;;19.27;11.90;;;11.70;99.90;;;;;;5063254;28;20399;-72
2021/11/10 02:01:06;;;;;;;17.35;12.63;;;11.70;99.90;;;;;;5063031;28;20043;-72
2021/11/10 02:04:10;;;;;;;19.58;12.25;;;11.60;99.90;;;;;;5063982;28;20047;-72
2021/11/10 02:07:16;;;;;;;15.45;8.85;;;11.70;99.90;;;;;;5065562;28;20052;-71
2021/11/10 02:10:26;;;;;;;12.50;7.07;;;11.60;99.90;;;;;;5063706;28;20048;-71
2021/11/10 02:13:32;;;;;;;9.68;5.32;;;11.60;99.90;;;;;;5066848;28;20394;-71
2021/11/10 02:16:39;;;;;;;9.50;5.45;;;11.60;99.90;;;;;;5059791;28;20048;-71
2021/11/10 02:19:45;;;;;;;16.50;6.45;;;11.60;99.90;;;;;;5060813;28;20036;-71
2021/11/10 02:22:57;;;;;;;8.95;4.43;;;11.60;99.90;;;;;;5061531;28;20047;-71
2021/11/10 02:26:05;;;;;;;7.90;4.93;;;11.60;99.90;;;;;;5069227;28;20048;-71
2021/11/10 02:29:10;;;;;;;7.32;4.30;;;11.60;99.90;;;;;;5059591;28;20044;-71
2021/11/10 02:32:15;;;;;;;8.30;4.32;;;11.60;99.90;;;;;;5062709;28;20039;-71
2021/11/10 02:35:26;;;;;;;10.20;4.53;;;11.60;99.90;;;;;;5060581;28;20052;-71
2021/11/10 02:38:32;;;;;;;7.10;4.03;;;11.60;99.90;;;;;;5059483;28;20040;-72
2021/11/10 02:41:38;;;;;;;9.52;4.10;;;11.60;99.90;;;;;;5061271;28;20043;-71
2021/11/10 02:44:42;;;;;;;8.30;4.75;;;11.60;99.90;;;;;;5064023;28;20044;-71
2021/11/10 02:47:47;;;;;;;8.60;3.97;;;11.60;99.90;;;;;;5060616;28;20056;-72
2021/11/10 02:50:51;;;;;;;8.40;4.35;;;11.70;99.90;;;;;;5062254;28;20048;-72
2021/11/10 02:53:56;;;;;;;9.00;3.80;;;11.70;99.90;;;;;;5061672;28;20040;-72
2021/11/10 02:57:03;;;;;;;12.38;4.25;;;11.70;99.90;;;;;;5063620;28;20051;-72
2021/11/10 03:00:08;;;;;;;9.32;4.93;;;11.70;99.90;;;;;;5067368;28;20048;-72
2021/11/10 03:03:17;;;;;;;8.98;4.32;;;11.60;99.90;;;;;;5059128;28;20035;-71
2021/11/10 03:06:27;;;;;;;7.70;4.65;;;11.70;99.90;;;;;;5066774;28;20043;-72
2021/11/10 03:09:34;;;;;;;7.85;4.55;;;11.70;99.90;;;;;;5058539;28;20052;-72
2021/11/10 03:12:46;;;;;;;6.85;4.72;;;11.80;99.90;;;;;;5058295;28;20506;-72
2021/11/10 03:15:55;;;;;;;7.65;4.60;;;11.90;99.90;;;;;;5066909;28;20043;-72
2021/11/10 03:18:59;;;;;;;9.45;4.65;;;11.90;99.90;;;;;;5068933;28;20090;-72
2021/11/10 03:22:05;;;;;;;8.77;5.10;;;11.90;99.90;;;;;;5062167;28;20035;-71
2021/11/10 03:25:10;;;;;;;6.25;4.03;;;11.80;99.90;;;;;;5062807;28;20500;-71
2021/11/10 03:28:16;;;;;;;8.77;4.43;;;11.80;99.90;;;;;;5057597;28;20044;-72
2021/11/10 03:31:20;;;;;;;10.18;4.63;;;11.70;99.90;;;;;;5063914;28;20035;-72
2021/11/10 03:34:24;;;;;;;6.60;4.32;;;11.70;99.90;;;;;;5060447;28;20039;-72
2021/11/10 03:37:29;;;;;;;12.38;4.90;;;11.70;99.90;;;;;;5064448;28;20043;-72
2021/11/10 03:40:33;;;;;;;12.48;4.80;;;11.60;99.90;;;;;;5058770;28;20486;-72
2021/11/10 03:43:37;;;;;;;11.68;5.50;;;11.70;99.90;;;;;;5060085;28;20388;-72
2021/11/10 03:46:44;;;;;;;10.80;6.63;;;11.70;99.90;;;;;;5061787;28;20048;-71
2021/11/10 03:49:50;;;;;;;10.10;6.70;;;11.70;99.90;;;;;;5065428;28;20056;-71
2021/11/10 03:52:56;;;;;;;11.57;6.78;;;11.70;99.90;;;;;;5060499;28;20052;-72
2021/11/10 03:56:00;;;;;;;10.20;6.00;;;11.60;99.90;;;;;;5061364;28;20048;-72
2021/11/10 03:59:05;;;;;;;12.32;5.95;;;11.50;99.90;;;;;;5058293;28;20031;-72
2021/11/10 04:02:12;;;;;;;12.60;5.50;;;11.50;99.90;;;;;;5057907;28;20211;-72
2021/11/10 04:05:16;;;;;;;14.77;5.53;;;11.60;99.90;;;;;;5056215;28;20031;-72
2021/11/10 04:08:21;;;;;;;10.80;5.35;;;11.70;99.90;;;;;;5058598;28;20059;-72
2021/11/10 04:11:27;;;;;;;10.07;5.05;;;11.70;99.90;;;;;;5064844;28;20043;-71
2021/11/10 04:14:32;;;;;;;11.60;5.90;;;11.70;99.90;;;;;;5059221;28;20052;-72
2021/11/10 04:17:36;;;;;;;11.07;6.13;;;11.70;99.90;;;;;;5056542;28;20039;-72
2021/11/10 04:20:40;;;;;;;12.00;6.53;;;11.80;99.90;;;;;;5069655;28;20032;-72
2021/11/10 04:23:47;;;;;;;10.77;5.80;;;11.70;99.90;;;;;;5064765;28;20392;-72
2021/11/10 04:26:53;;;;;;;8.93;5.30;;;11.60;99.90;;;;;;5060205;28;20055;-72
2021/11/10 04:30:02;;;;;;;10.50;5.38;;;11.60;99.90;;;;;;5058553;28;20426;-72
2021/11/10 04:33:08;;;;;;;12.63;5.28;;;11.50;99.90;;;;;;5057877;28;20060;-71
2021/11/10 04:36:13;;;;;;;9.70;5.25;;;11.50;99.90;;;;;;5053073;28;20040;-71
2021/11/10 04:39:19;;;;;;;8.65;5.25;;;11.50;99.90;;;;;;5060961;28;20036;-71
2021/11/10 04:42:24;;;;;;;10.75;5.47;;;11.40;99.90;;;;;;5052038;28;20048;-71
2021/11/10 04:45:32;;;;;;;11.50;6.32;;;11.30;99.90;;;;;;5056985;28;20069;-71
2021/11/10 04:48:38;;;;;;;10.13;6.88;;;11.30;99.90;;;;;;5060501;28;20498;-72
2021/11/10 04:51:44;;;;;;;18.88;7.88;;;11.20;99.90;;;;;;5065201;28;20064;-71
2021/11/10 04:54:50;;;;;;;11.68;5.55;;;11.20;99.90;;;;;;5066078;28;20055;-71
2021/11/10 04:57:54;;;;;;;12.60;5.38;;;11.20;99.90;;;;;;5063492;28;20039;-71
2021/11/10 05:00:59;;;;;;;11.02;5.82;;;11.20;99.90;;;;;;5058837;28;20040;-71
2021/11/10 05:04:07;;;;;;;9.68;5.05;;;11.20;99.90;;;;;;5058981;28;20036;-71
2021/11/10 05:07:13;;;;;;;9.02;5.70;;;11.30;99.90;;;;;;5053907;28;20044;-72
2021/11/10 05:10:18;;;;;;;17.67;8.38;;;11.30;99.90;;;;;;5057765;28;20113;-71
2021/11/10 05:13:27;;;;;;;10.73;6.38;;;11.40;99.90;;;;;;5063130;28;20047;-72
2021/11/10 05:16:31;;;;;;;9.52;5.75;;;11.40;99.90;;;;;;5061666;28;20426;-71
2021/11/10 05:19:38;;;;;;;11.52;6.05;;;11.40;99.90;;;;;;5062882;28;20048;-71
2021/11/10 05:22:42;;;;;;;8.25;5.65;;;11.40;99.90;;;;;;5060869;28;20043;-72
2021/11/10 05:25:47;;;;;;;11.50;4.95;;;11.40;99.90;;;;;;5058340;28;20043;-71
2021/11/10 05:28:51;;;;;;;11.95;6.13;;;11.40;99.90;;;;;;5063511;28;20493;-71
2021/11/10 05:31:55;;;;;;;13.43;5.57;;;11.40;99.90;;;;;;5056638;28;20044;-71
2021/11/10 05:34:59;;;;;;;13.02;6.20;;;11.50;99.90;;;;;;5062628;28;20055;-72
2021/11/10 05:38:04;;;;;;;11.95;6.93;;;11.50;99.90;;;;;;5069418;28;20051;-72
2021/11/10 05:41:08;;;;;;;15.00;7.82;;;11.50;99.90;;;;;;5057791;28;20036;-72
2021/11/10 05:44:13;;;;;;;18.58;10.35;;;11.50;99.90;;;;;;5058713;28;20047;-71
2021/11/10 05:47:17;;;;;;;17.17;10.30;;;11.50;99.90;;;;;;5055048;28;20052;-72
2021/11/10 05:50:22;;;;;;;15.43;9.10;;;11.50;99.90;;;;;;5057726;28;20060;-72
2021/11/10 05:53:26;;;;;;;17.30;8.07;;;11.50;99.90;;;;;;5061652;28;20057;-72
2021/11/10 05:56:36;;;;;;;13.50;6.97;;;11.40;99.90;;;;;;5062120;28;20399;-71
2021/11/10 05:59:43;;;;;;;30.52;12.77;;;11.40;99.90;;;;;;5057952;28;20044;-71
2021/11/10 06:02:49;;;;;;;13.57;7.40;;;11.40;99.90;;;;;;5063865;28;20062;-72
2021/11/10 06:05:53;;;;;;;30.17;17.30;;;11.40;99.90;;;;;;5060473;28;20044;-71
2021/11/10 06:08:57;;;;;;;20.15;10.55;;;11.40;99.90;;;;;;5062219;28;20056;-71
2021/11/10 06:12:02;;;;;;;18.10;7.93;;;11.30;99.90;;;;;;5060423;28;20080;-72
2021/11/10 06:15:07;;;;;;;13.73;8.68;;;11.30;99.90;;;;;;5066280;28;20073;-72
2021/11/10 06:18:11;;;;;;;15.50;8.65;;;11.40;99.90;;;;;;5063115;28;20047;-72
2021/11/10 06:21:16;;;;;;;22.08;8.10;;;11.40;99.90;;;;;;5056555;28;20067;-72
2021/11/10 06:24:21;;;;;;;16.08;7.75;;;11.40;99.90;;;;;;5062485;28;20039;-72
2021/11/10 06:27:25;;;;;;;16.58;9.55;;;11.50;99.90;;;;;;5054831;28;20051;-72
2021/11/10 06:30:30;;;;;;;18.88;9.65;;;11.50;99.90;;;;;;5057602;28;20047;-72
2021/11/10 06:33:35;;;;;;;19.88;9.10;;;11.60;99.90;;;;;;5062331;28;20039;-71
2021/11/10 06:36:39;;;;;;;20.85;9.75;;;11.60;99.90;;;;;;5065284;28;20047;-71
2021/11/10 06:39:43;;;;;;;18.38;9.68;;;11.70;99.90;;;;;;5056649;28;20048;-72
2021/11/10 06:42:47;;;;;;;21.83;8.80;;;11.80;99.90;;;;;;5069740;28;20501;-72
2021/11/10 06:45:52;;;;;;;39.22;13.00;;;11.90;99.90;;;;;;5068159;28;20391;-72
2021/11/10 06:48:56;;;;;;;82.05;33.85;;;12.00;99.90;;;;;;5061879;28;20044;-72
2021/11/10 06:52:01;;;;;;;34.53;16.02;;;12.20;99.90;;;;;;5061060;28;20044;-72
2021/11/10 06:55:06;;;;;;;50.15;21.25;;;12.30;99.90;;;;;;5068089;28;20041;-72
2021/11/10 06:58:10;;;;;;;26.80;12.00;;;12.40;99.90;;;;;;5060927;28;20055;-72
2021/11/10 07:01:15;;;;;;;26.38;11.30;;;12.60;99.90;;;;;;5057667;28;20032;-72
2021/11/10 07:04:19;;;;;;;17.83;7.22;;;12.60;99.90;;;;;;5061003;28;20040;-72
2021/11/10 07:07:23;;;;;;;17.90;7.70;;;12.70;99.90;;;;;;5063401;28;20272;-71
2021/11/10 07:10:27;;;;;;;18.70;6.78;;;12.80;99.90;;;;;;5060972;28;20067;-72
2021/11/10 07:13:31;;;;;;;11.73;6.38;;;12.80;99.90;;;;;;5068386;28;20051;-72
2021/11/10 07:16:36;;;;;;;11.15;5.47;;;13.00;99.90;;;;;;5071269;28;20047;-72
2021/11/10 07:19:40;;;;;;;13.82;6.07;;;13.20;99.90;;;;;;5062750;28;20056;-72
2021/11/10 07:22:44;;;;;;;13.05;5.32;;;13.40;99.90;;;;;;5065350;28;20063;-72
2021/11/10 07:25:48;;;;;;;14.98;5.50;;;13.50;99.90;;;;;;5065816;28;20052;-72
2021/11/10 07:28:53;;;;;;;11.27;5.50;;;13.60;99.90;;;;;;5064848;28;20035;-72
2021/11/10 07:31:58;;;;;;;15.02;5.45;;;13.70;99.90;;;;;;5066542;28;20043;-72
2021/11/10 07:35:05;;;;;;;10.18;5.55;;;13.70;99.90;;;;;;5065288;28;20048;-72
2021/11/10 07:38:09;;;;;;;11.30;5.20;;;13.70;99.90;;;;;;5064626;28;20043;-72
2021/11/10 07:41:17;;;;;;;9.18;4.82;;;13.80;99.90;;;;;;5063797;28;20418;-72
2021/11/10 07:44:22;;;;;;;11.00;5.60;;;13.90;99.90;;;;;;5060007;28;20039;-72
2021/11/10 07:47:29;;;;;;;9.90;5.35;;;14.00;99.90;;;;;;5060343;28;20067;-71
2021/11/10 07:50:34;;;;;;;15.25;6.97;;;14.10;99.90;;;;;;5064695;28;20043;-72
2021/11/10 07:53:39;;;;;;;13.23;5.82;;;14.30;99.90;;;;;;5057822;28;20043;-72
2021/11/10 07:56:43;;;;;;;11.05;5.22;;;14.50;99.90;;;;;;5060231;28;20043;-72
2021/11/10 07:59:46;;;;;;;11.10;5.22;;;14.80;99.90;;;;;;5060547;28;20048;-72
2021/11/10 08:02:51;;;;;;;9.20;5.00;;;15.20;99.90;;;;;;5059992;28;20048;-72
2021/11/10 08:05:56;;;;;;;9.77;5.03;;;15.60;99.90;;;;;;5066072;28;20047;-72
2021/11/10 08:09:01;;;;;;;8.93;4.13;;;16.20;99.90;;;;;;5065266;28;20039;-72
2021/11/10 08:12:06;;;;;;;8.00;4.05;;;16.90;99.90;;;;;;5057612;28;20040;-72
2021/11/10 08:15:12;;;;;;;8.80;4.40;;;18.30;99.90;;;;;;5067223;28;20379;-72
2021/11/10 08:18:17;;;;;;;10.38;3.97;;;19.80;99.90;;;;;;5060676;28;20065;-72
2021/11/10 08:21:22;;;;;;;8.40;4.07;;;21.40;99.90;;;;;;5061762;28;20044;-72
2021/11/10 08:24:29;;;;;;;10.55;4.15;;;22.30;99.90;;;;;;5063892;28;20395;-72
2021/11/10 08:27:35;;;;;;;9.07;3.80;;;22.40;99.90;;;;;;5067879;28;20040;-72
2021/11/10 08:30:39;;;;;;;8.63;3.70;;;22.20;99.90;;;;;;5066015;28;20042;-72
2021/11/10 08:33:43;;;;;;;9.57;4.00;;;22.00;99.90;;;;;;5066107;28;20096;-72
2021/11/10 08:36:48;;;;;;;8.13;4.18;;;22.00;99.90;;;;;;5058134;28;20059;-72
2021/11/10 08:39:52;;;;;;;8.50;4.18;;;22.90;99.90;;;;;;5063944;28;20040;-72
2021/11/10 08:42:56;;;;;;;10.32;5.38;;;23.20;99.90;;;;;;5065120;28;20391;-72
2021/11/10 08:46:00;;;;;;;9.30;4.57;;;22.90;99.90;;;;;;5060696;28;20052;-72
2021/11/10 08:49:05;;;;;;;7.25;4.22;;;22.30;99.90;;;;;;5063159;28;20036;-72
2021/11/10 08:52:10;;;;;;;8.95;4.50;;;22.00;99.90;;;;;;5058502;28;20382;-72
2021/11/10 08:55:16;;;;;;;11.73;5.25;;;21.70;99.90;;;;;;5059013;28;20043;-72
2021/11/10 08:58:21;;;;;;;10.27;5.68;;;21.10;99.90;;;;;;5060707;28;20055;-72
2021/11/10 09:01:25;;;;;;;12.57;6.57;;;20.70;99.90;;;;;;5057916;28;20036;-72
2021/11/10 09:04:29;;;;;;;11.75;6.15;;;20.60;99.90;;;;;;5064261;28;20502;-72
2021/11/10 09:07:35;;;;;;;9.65;6.82;;;20.50;99.90;;;;;;5067630;28;20044;-72
2021/11/10 09:10:40;;;;;;;12.95;6.65;;;20.30;99.90;;;;;;5064411;28;20048;-72
2021/11/10 09:13:46;;;;;;;11.55;5.57;;;19.90;99.90;;;;;;5066768;28;20043;-72
2021/11/10 09:16:50;;;;;;;9.82;5.18;;;19.50;99.90;;;;;;5064730;28;20048;-72
2021/11/10 09:19:54;;;;;;;8.70;5.38;;;19.20;99.90;;;;;;5065840;28;20051;-72
2021/11/10 09:22:59;;;;;;;10.35;5.10;;;19.20;99.90;;;;;;5068374;28;20028;-72
2021/11/10 09:26:04;;;;;;;13.20;5.13;;;19.60;99.90;;;;;;5060729;28;20047;-72
2021/11/10 09:29:09;;;;;;;8.40;4.63;;;20.40;99.90;;;;;;5065697;28;20044;-72
2021/11/10 09:32:13;;;;;;;6.28;3.65;;;22.50;99.90;;;;;;5062988;28;20035;-72
2021/11/10 09:35:18;;;;;;;5.78;3.17;;;26.50;98.40;;;;;;5062257;28;20063;-73
2021/11/10 09:38:23;;;;;;;7.72;3.25;;;30.60;93.10;;;;;;5053760;28;20116;-72
2021/11/10 09:41:28;;;;;;;10.43;3.55;;;33.60;87.00;;;;;;5059456;28;20040;-71
2021/11/10 09:44:33;;;;;;;6.72;3.63;;;35.30;79.80;;;;;;5068713;28;20047;-72
2021/11/10 09:47:41;;;;;;;5.47;3.63;;;36.00;75.30;;;;;;5063608;28;20774;-71
2021/11/10 09:50:48;;;;;;;9.30;3.15;;;34.90;74.10;;;;;;5060128;28;20766;-71
2021/11/10 09:53:52;;;;;;;5.50;3.30;;;34.70;74.80;;;;;;5067681;28;20048;-71
2021/11/10 09:56:56;;;;;;;4.78;3.08;;;36.30;72.30;;;;;;5070386;28;20513;-72
2021/11/10 10:00:05;;;;;;;7.32;3.10;;;37.60;70.50;;;;;;5060533;28;20047;-72
2021/11/10 10:03:17;;;;;;;6.95;3.47;;;38.80;68.00;;;;;;5059859;28;20047;-72
2021/11/10 10:06:24;;;;;;;7.53;3.05;;;37.60;66.30;;;;;;5064856;28;20056;-71
2021/11/10 10:09:28;;;;;;;9.85;4.60;;;34.70;68.80;;;;;;5069412;28;20383;-72
2021/11/10 10:12:32;;;;;;;13.32;3.80;;;31.40;72.10;;;;;;5073773;28;20039;-73
2021/11/10 10:15:37;;;;;;;7.75;4.30;;;28.30;76.60;;;;;;5073705;28;20043;-72
2021/11/10 10:18:41;;;;;;;6.82;4.25;;;26.30;81.10;;;;;;5072659;28;20043;-71
2021/11/10 10:21:59;;;;;;;7.13;4.57;;;25.10;84.00;;;;;;5065697;28;20059;-72
2021/11/10 10:25:04;;;;;;;9.07;4.70;;;23.90;87.10;;;;;;5060493;28;20150;-73
2021/11/10 10:28:13;;;;;;;8.48;4.82;;;23.00;89.40;;;;;;5067964;28;20044;-73
2021/11/10 10:31:26;;;;;;;9.18;4.57;;;22.60;90.80;;;;;;5070078;28;20052;-73
2021/11/10 10:34:30;;;;;;;8.32;5.00;;;23.20;90.80;;;;;;5073286;28;20040;-71
2021/11/10 10:37:35;;;;;;;9.98;4.82;;;24.50;89.30;;;;;;5063628;28;20039;-73
2021/11/10 10:40:41;;;;;;;7.20;4.53;;;26.10;87.00;;;;;;5069786;28;20048;-73
2021/11/10 10:43:52;;;;;;;8.48;5.22;;;26.50;84.90;;;;;;5072578;28;20052;-74
2021/11/10 10:46:58;;;;;;;7.63;4.78;;;25.90;86.90;;;;;;5069331;28;20040;-71
2021/11/10 10:50:04;;;;;;;9.68;4.82;;;24.90;88.20;;;;;;5065661;28;20040;-71
2021/11/10 10:53:12;;;;;;;11.13;4.95;;;24.50;90.00;;;;;;5058146;28;20044;-74
2021/11/10 10:56:16;;;;;;;6.65;4.30;;;24.40;90.30;;;;;;5064346;28;20032;-71
2021/11/10 10:59:29;;;;;;;11.02;4.65;;;24.40;90.60;;;;;;5070914;28;20040;-71
2021/11/10 11:02:34;;;;;;;10.05;4.63;;;25.20;90.40;;;;;;5072207;28;20494;-72
2021/11/10 11:05:45;;;;;;;6.97;4.25;;;26.70;89.60;;;;;;5070843;28;20043;-71
2021/11/10 11:08:49;;;;;;;10.25;4.05;;;28.50;85.80;;;;;;5067282;28;20044;-71
2021/11/10 11:12:05;;;;;;;7.57;4.00;;;28.70;83.20;;;;;;5069904;28;20545;-72
2021/11/10 11:15:34;;;;;;;8.57;4.38;;;27.90;83.30;;;;;;5053496;28;20384;-71
2021/11/10 11:18:38;;;;;;;8.35;3.97;;;27.50;85.00;;;;;;5070879;28;20051;-73
2021/11/10 11:21:50;;;;;;;7.50;3.85;;;29.80;83.80;;;;;;5071960;28;20047;-71
2021/11/10 11:24:55;;;;;;;7.57;3.95;;;32.40;78.40;;;;;;5072017;28;20055;-71
2021/11/10 11:28:13;;;;;;;6.10;3.92;;;31.80;76.80;;;;;;5071814;28;20059;-71
2021/11/10 11:31:33;;;;;;;7.68;4.22;;;30.80;77.40;;;;;;5063535;28;20032;-72
2021/11/10 11:35:01;;;;;;;8.68;4.55;;;29.70;79.50;;;;;;5063283;28;20048;-72
2021/11/10 11:38:07;;;;;;;5.95;3.78;;;29.40;80.70;;;;;;5063999;28;20051;-73
2021/11/10 11:41:15;;;;;;;5.65;3.60;;;32.00;78.00;;;;;;5069291;28;20114;-73
2021/11/10 11:44:20;;;;;;;7.60;3.80;;;34.30;75.60;;;;;;5067412;28;20047;-73
2021/11/10 11:47:26;;;;;;;7.55;3.95;;;36.20;72.00;;;;;;5066095;28;20497;-73
2021/11/10 11:50:31;;;;;;;5.38;3.38;;;37.30;70.20;;;;;;5055451;28;20540;-73
2021/11/10 11:53:39;;;;;;;5.60;3.35;;;38.50;68.20;;;;;;5066967;28;20048;-73
2021/11/10 11:56:44;;;;;;;7.10;3.97;;;39.30;66.60;;;;;;5072014;28;20071;-73
2021/11/10 11:59:51;;;;;;;11.00;3.50;;;39.30;65.70;;;;;;5070209;28;20051;-73
2021/11/10 12:02:56;;;;;;;5.10;3.20;;;38.60;65.30;;;;;;5070374;28;20055;-73
2021/11/10 12:06:03;;;;;;;5.95;3.33;;;38.90;65.90;;;;;;5070722;28;20051;-73
2021/11/10 12:09:17;;;;;;;4.72;3.20;;;39.70;65.10;;;;;;5063444;28;20047;-73
2021/11/10 12:12:22;;;;;;;6.05;3.30;;;40.30;63.70;;;;;;5065668;28;20257;-72
2021/11/10 12:15:27;;;;;;;7.30;3.38;;;40.70;62.30;;;;;;5052834;28;20051;-73
2021/11/10 12:18:42;;;;;;;8.75;3.40;;;41.30;62.40;;;;;;5068258;28;20055;-74
2021/11/10 12:21:51;;;;;;;7.85;3.88;;;39.70;61.60;;;;;;5068386;28;20063;-72
2021/11/10 12:24:56;;;;;;;7.40;3.73;;;36.40;63.80;;;;;;5071123;28;20055;-72
2021/11/10 12:28:01;;;;;;;9.27;3.95;;;33.30;67.50;;;;;;5055128;28;20529;-72
2021/11/10 12:31:26;;;;;;;8.25;3.70;;;32.20;69.90;;;;;;5063090;28;20032;-72
2021/11/10 12:34:30;;;;;;;7.88;3.70;;;33.90;69.10;;;;;;5059049;28;20047;-72
2021/11/10 12:37:39;;;;;;;7.22;3.70;;;35.60;66.90;;;;;;5061101;28;20059;-72
2021/11/10 12:40:52;;;;;;;6.85;3.47;;;36.80;66.10;;;;;;5061813;28;20047;-73
2021/11/10 12:44:00;;;;;;;5.60;3.50;;;37.70;65.00;;;;;;5067191;28;20051;-73
2021/11/10 12:47:05;;;;;;;7.72;4.00;;;38.10;64.10;;;;;;5062153;28;20044;-73
2021/11/10 12:50:34;;;;;;;5.40;3.35;;;38.20;63.40;;;;;;5063417;28;20051;-73
2021/11/10 12:53:57;;;;;;;6.38;4.32;;;37.60;64.00;;;;;;5056716;28;20040;-73
2021/11/10 12:57:02;;;;;;;11.07;4.10;;;37.50;64.10;;;;;;5061643;28;20063;-73
2021/11/10 13:00:07;;;;;;;5.13;3.70;;;36.60;63.80;;;;;;5062949;28;20052;-73
2021/11/10 13:03:23;;;;;;;7.72;4.30;;;34.40;65.10;;;;;;5063024;28;20063;-73
2021/11/10 13:06:31;;;;;;;5.18;3.85;;;33.50;66.20;;;;;;5061128;28;20509;-72
2021/11/10 13:09:36;;;;;;;7.57;4.15;;;32.00;68.30;;;;;;5061055;28;20036;-73
2021/11/10 13:12:45;;;;;;;6.07;3.97;;;32.00;69.10;;;;;;5059879;28;20044;-73
2021/11/10 13:15:49;;;;;;;8.18;4.10;;;32.20;69.70;;;;;;5058660;28;20036;-72
2021/11/10 13:18:55;;;;;;;8.20;4.10;;;32.20;69.40;;;;;;5066588;28;20052;-72
2021/11/10 13:22:00;;;;;;;10.13;4.72;;;30.70;71.00;;;;;;5061875;28;20039;-72
2021/11/10 13:25:24;;;;;;;10.65;4.28;;;28.90;73.40;;;;;;5071236;28;20493;-72
2021/11/10 13:28:28;;;;;;;8.48;4.93;;;27.50;76.70;;;;;;5065107;28;20047;-72
2021/11/10 13:31:32;;;;;;;9.93;4.70;;;26.50;79.50;;;;;;5051517;28;20064;-72
2021/11/10 13:34:36;;;;;;;11.55;4.93;;;25.70;80.70;;;;;;5063636;28;20506;-72
2021/11/10 13:37:51;;;;;;;10.65;5.80;;;25.20;82.70;;;;;;5070640;28;20051;-72
2021/11/10 13:40:56;;;;;;;7.53;4.57;;;24.80;85.00;;;;;;5066307;28;20518;-72
2021/11/10 13:44:11;;;;;;;14.40;5.30;;;24.50;85.60;;;;;;5060723;28;20044;-72
2021/11/10 13:47:15;;;;;;;11.07;5.22;;;24.30;87.90;;;;;;5066572;28;20043;-72
2021/11/10 13:50:20;;;;;;;11.13;5.40;;;24.30;87.40;;;;;;5073043;28;20069;-72
2021/11/10 13:53:24;;;;;;;7.85;4.85;;;24.60;87.10;;;;;;5065004;28;20035;-72
2021/11/10 13:56:53;;;;;;;9.27;5.25;;;25.00;85.90;;;;;;5063839;28;20044;-72
2021/11/10 14:00:06;;;;;;;8.07;5.20;;;24.80;86.50;;;;;;5061723;28;20471;-72
2021/11/10 14:03:22;;;;;;;10.57;5.03;;;24.40;87.30;;;;;;5070962;28;20039;-72
2021/11/10 14:06:26;;;;;;;9.57;5.22;;;24.60;87.80;;;;;;5068244;28;20044;-72
2021/11/10 14:09:32;;;;;;;7.43;5.03;;;25.30;86.10;;;;;;5065997;28;20035;-72
2021/11/10 14:12:42;;;;;;;8.75;4.78;;;25.10;86.30;;;;;;5063722;28;20048;-72
2021/11/10 14:15:46;;;;;;;8.65;4.88;;;24.70;87.40;;;;;;5066471;28;20382;-72
2021/11/10 14:18:50;;;;;;;9.70;5.43;;;24.30;87.70;;;;;;5055063;28;20052;-72
2021/11/10 14:21:54;;;;;;;13.93;6.20;;;23.80;89.30;;;;;;5058638;28;20398;-71
2021/11/10 14:25:00;;;;;;;11.93;5.68;;;23.20;90.80;;;;;;5062194;28;20048;-72
2021/11/10 14:28:05;;;;;;;11.23;6.35;;;22.70;91.70;;;;;;5051946;28;20425;-71
2021/11/10 14:31:12;;;;;;;12.77;6.40;;;22.20;92.40;;;;;;5055380;28;20044;-72
2021/11/10 14:34:29;;;;;;;10.95;5.68;;;21.80;93.40;;;;;;5053436;28;20048;-72
2021/11/10 14:37:33;;;;;;;11.00;5.75;;;21.40;94.50;;;;;;5056621;28;20051;-72
2021/11/10 14:40:45;;;;;;;12.38;6.25;;;21.10;95.10;;;;;;5054199;28;20043;-71
2021/11/10 14:43:58;;;;;;;12.27;7.03;;;20.80;95.80;;;;;;5063842;28;20382;-72
2021/11/10 14:47:02;;;;;;;;;;;20.60;96.50;;;;;;5072733;28;20047;-72
2021/11/10 14:50:12;;;;;;;25.98;14.27;;;20.40;96.30;;;;;;5057871;28;20358;-72
2021/11/10 14:53:17;;;;;;;27.95;12.90;;;20.30;96.90;;;;;;5066276;28;20044;-72
2021/11/10 14:56:21;;;;;;;18.77;11.05;;;20.30;97.10;;;;;;5063632;28;20056;-72
2021/11/10 14:59:47;;;;;;;22.10;11.43;;;20.10;97.30;;;;;;5070992;28;20051;-72
2021/11/10 15:02:51;;;;;;;14.90;9.07;;;19.90;98.70;;;;;;5073155;28;20047;-72
2021/11/10 15:05:55;;;;;;;18.55;9.13;;;19.70;98.50;;;;;;5072805;28;20043;-71
2021/11/10 15:09:07;;;;;;;15.80;9.35;;;19.50;99.90;;;;;;5067546;28;20056;-72
2021/11/10 15:12:19;;;;;;;20.77;11.88;;;19.50;99.90;;;;;;5072613;28;20052;-73
2021/11/10 15:15:25;;;;;;;21.27;11.05;;;19.40;99.90;;;;;;5063531;28;20045;-73
2021/11/10 15:18:37;;;;;;;26.55;14.05;;;19.20;99.90;;;;;;5062812;28;20064;-73
2021/11/10 15:21:41;;;;;;;;;;;19.00;99.90;;;;;;5070326;28;20059;-73
2021/11/10 15:24:46;;;;;;;27.55;15.18;;;18.70;99.90;;;;;;5070290;28;19912;-73
2021/11/10 15:27:53;;;;;;;18.38;10.10;;;18.30;99.90;;;;;;5064260;28;20048;-73
2021/11/10 15:31:00;;;;;;;24.95;10.82;;;18.20;99.90;;;;;;5052139;28;20064;-73
2021/11/10 15:34:04;;;;;;;26.10;13.65;;;18.10;99.90;;;;;;5051937;28;20518;-73
2021/11/10 15:37:09;;;;;;;32.65;15.48;;;18.20;99.90;;;;;;5064824;28;20056;-73
2021/11/10 15:40:13;;;;;;;22.65;11.75;;;18.20;99.90;;;;;;5052729;28;20399;-73
2021/11/10 15:43:18;;;;;;;18.55;8.95;;;18.20;99.90;;;;;;5051375;28;20044;-73
2021/11/10 15:46:22;;;;;;;19.48;11.07;;;18.20;99.90;;;;;;5051504;28;20051;-73
2021/11/10 15:49:27;;;;;;;23.88;10.38;;;18.20;99.90;;;;;;5065521;28;20051;-73
2021/11/10 15:52:31;;;;;;;14.15;8.20;;;18.20;99.90;;;;;;5071182;28;20052;-72
2021/11/10 15:55:36;;;;;;;22.02;10.10;;;18.10;99.90;;;;;;5066067;28;20418;-73
2021/11/10 15:58:41;;;;;;;20.75;10.25;;;18.10;99.90;;;;;;5063501;28;20063;-73
2021/11/10 16:01:45;;;;;;;19.00;9.95;;;18.00;99.90;;;;;;5060255;28;20119;-72